Thunder radar more information blitzortung!


Radar de pluja more information rain snow radar


Visita la nostra xarxa de llocs de meteo:

Template documentation
and downloads

And another site



No particular awareness of the weather is required.    There are no Weather-warnings

Pagina Historial Weather Underground text

Diari Resum Cap La, TWC- Unitats:  Tant    Imperial   Mètric
« Previous Dia
SegĂźent Dia »
Diari Setmana Mensual Anual Personalitzada
  Maxima: Minima: Media:
Temperatura: TemperatureC °F /  -17.8 °C 0.9 °F /  -17.3 °C 4.2 °F /  -15.4 °C
Punt de rosada: DewpointC °F /  -17.8 °C -6.6 °F /  -21.4 °C -3.6 °F /  -19.8 °C
Humitat: Humidity % 42 % 57 %
Wind Speed: WindSpeedKMH mph /  0 km/h - 1.6 mph /  2.6 km/h
RĂ fegues de vent: WindSpeedGustKMH mph /  0 km/h - -
Vent:- - SE
Pression baro: PressurehPa in /  0 hPa 1026.9 in /  34770.8 hPa -
Precipitacions: 0.0 in /  0 mm    
Historical Graphs
 
 
Dades de taula per Cap La, TWC-
Temps Temperatura Punt de rosada Pression baro Vent Wind Speed RĂ fegues de vent Humitat Rainfall Rate (Hourly)
TemperatureC °F /  -17.8 °C DewpointC °F /  -17.8 °C PressurehPa in /  0 hPa Calm     Humidity % HourlyPrecipMM in /  0 mm
00:04 4.7 °F /  -15.2 °C -2.2 °F /  -19 °C 1027.9 in /  34804.7 hPa Calm     61 % 0.0 in /  0 mm
00:09 4.7 °F /  -15.2 °C -2.4 °F /  -19.1 °C 1027.9 in /  34804.7 hPa Calm     60 % 0.0 in /  0 mm
00:14 4.7 °F /  -15.2 °C -2.4 °F /  -19.1 °C 1027.9 in /  34804.7 hPa Calm     60 % 0.0 in /  0 mm
00:19 4.6 °F /  -15.2 °C -2.5 °F /  -19.2 °C 1027.9 in /  34804.7 hPa Calm     60 % 0.0 in /  0 mm
00:24 4.7 °F /  -15.2 °C -2.4 °F /  -19.1 °C 1027.9 in /  34804.7 hPa Calm     60 % 0.0 in /  0 mm
00:29 4.7 °F /  -15.2 °C -2.4 °F /  -19.1 °C 1027.9 in /  34804.7 hPa Calm     60 % 0.0 in /  0 mm
00:34 4.8 °F /  -15.1 °C -2.3 °F /  -19.1 °C 1027.9 in /  34804.7 hPa Calm     60 % 0.0 in /  0 mm
00:39 4.7 °F /  -15.2 °C -2.4 °F /  -19.1 °C 1027.9 in /  34804.7 hPa Calm     60 % 0.0 in /  0 mm
00:44 4.7 °F /  -15.2 °C -2.2 °F /  -19 °C 1027.9 in /  34804.7 hPa Calm     61 % 0.0 in /  0 mm
00:49 4.7 °F /  -15.2 °C -2.2 °F /  -19 °C 1027.9 in /  34804.7 hPa Calm     61 % 0.0 in /  0 mm
00:54 4.6 °F /  -15.2 °C -2.3 °F /  -19.1 °C 1027.9 in /  34804.7 hPa Calm     61 % 0.0 in /  0 mm
00:59 4.6 °F /  -15.2 °C -2.3 °F /  -19.1 °C 1027.9 in /  34804.7 hPa Calm     61 % 0.0 in /  0 mm
01:04 4.5 °F /  -15.3 °C -2.4 °F /  -19.1 °C 1027.9 in /  34804.7 hPa Calm     61 % 0.0 in /  0 mm
01:09 4.5 °F /  -15.3 °C -2.4 °F /  -19.1 °C 1027.9 in /  34804.7 hPa ENE 3.7 mph /  6 km/h   61 % 0.0 in /  0 mm
01:14 4.4 °F /  -15.3 °C -2.5 °F /  -19.2 °C 1027.9 in /  34804.7 hPa ENE 1.9 mph /  3.1 km/h 1.9 mph /  3.1 km/h 61 % 0.0 in /  0 mm
01:19 4.2 °F /  -15.4 °C -2.7 °F /  -19.3 °C 1027.9 in /  34804.7 hPa ENE 1.9 mph /  3.1 km/h   61 % 0.0 in /  0 mm
01:24 4.1 °F /  -15.5 °C -2.8 °F /  -19.3 °C 1027.9 in /  34804.7 hPa NE 1.9 mph /  3.1 km/h   61 % 0.0 in /  0 mm
01:29 3.9 °F /  -15.6 °C -3.2 °F /  -19.6 °C 1027.9 in /  34804.7 hPa Calm     60 % 0.0 in /  0 mm
01:34 3.7 °F /  -15.7 °C -3.3 °F /  -19.6 °C 1027.9 in /  34804.7 hPa Calm     60 % 0.0 in /  0 mm
01:39 3.6 °F /  -15.8 °C -3.4 °F /  -19.7 °C 1027.9 in /  34804.7 hPa WSW 1.9 mph /  3.1 km/h 1.4 mph /  2.3 km/h 60 % 0.0 in /  0 mm
01:44 3.5 °F /  -15.8 °C -3.8 °F /  -19.9 °C 1027.9 in /  34804.7 hPa WSW 3.7 mph /  6 km/h 1.9 mph /  3.1 km/h 59 % 0.0 in /  0 mm
01:49 3.5 °F /  -15.8 °C -3.6 °F /  -19.8 °C 1027.9 in /  34804.7 hPa Calm     60 % 0.0 in /  0 mm
01:54 3.4 °F /  -15.9 °C -3.7 °F /  -19.8 °C 1027.9 in /  34804.7 hPa Calm     60 % 0.0 in /  0 mm
01:59 3.4 °F /  -15.9 °C -3.7 °F /  -19.8 °C 1027.9 in /  34804.7 hPa SW 1.4 mph /  2.3 km/h   60 % 0.0 in /  0 mm
02:04 3.3 °F /  -15.9 °C -3.7 °F /  -19.8 °C 1027.9 in /  34804.7 hPa WSW 1.9 mph /  3.1 km/h   60 % 0.0 in /  0 mm
02:09 3.3 °F /  -15.9 °C -3.5 °F /  -19.7 °C 1027.9 in /  34804.7 hPa SSE 1.9 mph /  3.1 km/h   61 % 0.0 in /  0 mm
02:14 3.2 °F /  -16 °C -3.8 °F /  -19.9 °C 1027.9 in /  34804.7 hPa WSW 1.9 mph /  3.1 km/h   60 % 0.0 in /  0 mm
02:19 3.2 °F /  -16 °C -3.8 °F /  -19.9 °C 1027.9 in /  34804.7 hPa WSW 3.7 mph /  6 km/h 2.6 mph /  4.2 km/h 60 % 0.0 in /  0 mm
02:24 3.2 °F /  -16 °C -3.6 °F /  -19.8 °C 1027.9 in /  34804.7 hPa Calm     61 % 0.0 in /  0 mm
02:29 3.1 °F /  -16.1 °C -3.7 °F /  -19.8 °C 1026.9 in /  34770.8 hPa Calm     61 % 0.0 in /  0 mm
02:34 3.1 °F /  -16.1 °C -3.7 °F /  -19.8 °C 1026.9 in /  34770.8 hPa Calm     61 % 0.0 in /  0 mm
02:39 3.0 °F /  -16.1 °C -3.8 °F /  -19.9 °C 1026.9 in /  34770.8 hPa Calm     61 % 0.0 in /  0 mm
02:44 3.0 °F /  -16.1 °C -4.0 °F /  -20 °C 1026.9 in /  34770.8 hPa West 1.9 mph /  3.1 km/h 2.3 mph /  3.7 km/h 60 % 0.0 in /  0 mm
02:49 3.0 °F /  -16.1 °C -4.0 °F /  -20 °C 1026.9 in /  34770.8 hPa SW 3.7 mph /  6 km/h   60 % 0.0 in /  0 mm
02:54 3.0 °F /  -16.1 °C -4.0 °F /  -20 °C 1026.9 in /  34770.8 hPa Calm     60 % 0.0 in /  0 mm
02:59 2.9 °F /  -16.2 °C -3.9 °F /  -19.9 °C 1026.9 in /  34770.8 hPa Calm     61 % 0.0 in /  0 mm
03:04 2.8 °F /  -16.2 °C -4.0 °F /  -20 °C 1026.9 in /  34770.8 hPa Calm     61 % 0.0 in /  0 mm
03:09 2.8 °F /  -16.2 °C -4.0 °F /  -20 °C 1026.9 in /  34770.8 hPa Calm     61 % 0.0 in /  0 mm
03:14 2.7 °F /  -16.3 °C -4.1 °F /  -20.1 °C 1026.9 in /  34770.8 hPa Calm     61 % 0.0 in /  0 mm
03:19 2.7 °F /  -16.3 °C -4.1 °F /  -20.1 °C 1026.9 in /  34770.8 hPa Calm     61 % 0.0 in /  0 mm
03:24 2.7 °F /  -16.3 °C -4.1 °F /  -20.1 °C 1026.9 in /  34770.8 hPa Calm     61 % 0.0 in /  0 mm
03:29 2.6 °F /  -16.3 °C -4.2 °F /  -20.1 °C 1026.9 in /  34770.8 hPa Calm     61 % 0.0 in /  0 mm
03:34 2.6 °F /  -16.3 °C -4.2 °F /  -20.1 °C 1026.9 in /  34770.8 hPa South 1.9 mph /  3.1 km/h   61 % 0.0 in /  0 mm
03:39 2.6 °F /  -16.3 °C -4.2 °F /  -20.1 °C 1026.9 in /  34770.8 hPa Calm     61 % 0.0 in /  0 mm
03:44 2.5 °F /  -16.4 °C -4.3 °F /  -20.2 °C 1026.9 in /  34770.8 hPa Calm     61 % 0.0 in /  0 mm
03:49 2.4 °F /  -16.4 °C -4.4 °F /  -20.2 °C 1026.9 in /  34770.8 hPa Calm     61 % 0.0 in /  0 mm
03:54 2.3 °F /  -16.5 °C -4.4 °F /  -20.2 °C 1026.9 in /  34770.8 hPa Calm     61 % 0.0 in /  0 mm
03:59 2.3 °F /  -16.5 °C -4.4 °F /  -20.2 °C 1026.9 in /  34770.8 hPa Calm     61 % 0.0 in /  0 mm
04:04 2.3 °F /  -16.5 °C -4.4 °F /  -20.2 °C 1026.9 in /  34770.8 hPa Calm     61 % 0.0 in /  0 mm
04:09 2.2 °F /  -16.6 °C -4.6 °F /  -20.3 °C 1026.9 in /  34770.8 hPa Calm     61 % 0.0 in /  0 mm
04:14 2.2 °F /  -16.6 °C -4.6 °F /  -20.3 °C 1026.9 in /  34770.8 hPa Calm     61 % 0.0 in /  0 mm
04:19 2.3 °F /  -16.5 °C -4.4 °F /  -20.2 °C 1026.9 in /  34770.8 hPa Calm     61 % 0.0 in /  0 mm
04:24 2.3 °F /  -16.5 °C -4.4 °F /  -20.2 °C 1026.9 in /  34770.8 hPa Calm     61 % 0.0 in /  0 mm
04:29 2.3 °F /  -16.5 °C -4.4 °F /  -20.2 °C 1026.9 in /  34770.8 hPa Calm     61 % 0.0 in /  0 mm
04:34 2.4 °F /  -16.4 °C -4.4 °F /  -20.2 °C 1026.9 in /  34770.8 hPa Calm     61 % 0.0 in /  0 mm
04:39 2.4 °F /  -16.4 °C -4.4 °F /  -20.2 °C 1026.9 in /  34770.8 hPa Calm     61 % 0.0 in /  0 mm
04:44 2.2 °F /  -16.6 °C -4.8 °F /  -20.4 °C 1026.9 in /  34770.8 hPa Calm     60 % 0.0 in /  0 mm
04:49 2.2 °F /  -16.6 °C -4.6 °F /  -20.3 °C 1026.9 in /  34770.8 hPa Calm     61 % 0.0 in /  0 mm
04:54 2.1 °F /  -16.6 °C -4.7 °F /  -20.4 °C 1026.9 in /  34770.8 hPa Calm     61 % 0.0 in /  0 mm
04:59 2.2 °F /  -16.6 °C -4.6 °F /  -20.3 °C 1026.9 in /  34770.8 hPa NNE 1.9 mph /  3.1 km/h 1.9 mph /  3.1 km/h 61 % 0.0 in /  0 mm
05:04 2.2 °F /  -16.6 °C -4.6 °F /  -20.3 °C 1026.9 in /  34770.8 hPa NNW 1.4 mph /  2.3 km/h   61 % 0.0 in /  0 mm
05:09 2.3 °F /  -16.5 °C -4.7 °F /  -20.4 °C 1026.9 in /  34770.8 hPa NNW 1.9 mph /  3.1 km/h   60 % 0.0 in /  0 mm
05:14 2.4 °F /  -16.4 °C -4.6 °F /  -20.3 °C 1026.9 in /  34770.8 hPa Calm     60 % 0.0 in /  0 mm
05:19 2.3 °F /  -16.5 °C -4.7 °F /  -20.4 °C 1026.9 in /  34770.8 hPa Calm     60 % 0.0 in /  0 mm
05:24 2.2 °F /  -16.6 °C -5.0 °F /  -20.6 °C 1026.9 in /  34770.8 hPa Calm     59 % 0.0 in /  0 mm
05:29 2.2 °F /  -16.6 °C -5.0 °F /  -20.6 °C 1026.9 in /  34770.8 hPa Calm     59 % 0.0 in /  0 mm
05:34 2.2 °F /  -16.6 °C -5.0 °F /  -20.6 °C 1026.9 in /  34770.8 hPa Calm     59 % 0.0 in /  0 mm
05:39 2.0 °F /  -16.7 °C -5.4 °F /  -20.8 °C 1026.9 in /  34770.8 hPa SW 1.9 mph /  3.1 km/h   58 % 0.0 in /  0 mm
05:44 1.9 °F /  -16.7 °C -5.3 °F /  -20.7 °C 1026.9 in /  34770.8 hPa Calm     59 % 0.0 in /  0 mm
05:49 1.8 °F /  -16.8 °C -5.4 °F /  -20.8 °C 1026.9 in /  34770.8 hPa NNE 1.9 mph /  3.1 km/h   59 % 0.0 in /  0 mm
05:54 1.7 °F /  -16.8 °C -5.4 °F /  -20.8 °C 1026.9 in /  34770.8 hPa Calm     59 % 0.0 in /  0 mm
05:59 1.7 °F /  -16.8 °C -5.4 °F /  -20.8 °C 1026.9 in /  34770.8 hPa Calm     59 % 0.0 in /  0 mm
06:04 1.6 °F /  -16.9 °C -5.6 °F /  -20.9 °C 1026.9 in /  34770.8 hPa Calm     59 % 0.0 in /  0 mm
06:09 1.7 °F /  -16.8 °C -5.4 °F /  -20.8 °C 1026.9 in /  34770.8 hPa Calm     59 % 0.0 in /  0 mm
06:14 1.7 °F /  -16.8 °C -5.4 °F /  -20.8 °C 1026.9 in /  34770.8 hPa Calm     59 % 0.0 in /  0 mm
06:19 1.7 °F /  -16.8 °C -5.4 °F /  -20.8 °C 1026.9 in /  34770.8 hPa Calm     59 % 0.0 in /  0 mm
06:24 1.6 °F /  -16.9 °C -5.8 °F /  -21 °C 1026.9 in /  34770.8 hPa NNE 1.9 mph /  3.1 km/h   58 % 0.0 in /  0 mm
06:29 1.6 °F /  -16.9 °C -5.8 °F /  -21 °C 1026.9 in /  34770.8 hPa Calm     58 % 0.0 in /  0 mm
06:34 1.6 °F /  -16.9 °C -5.8 °F /  -21 °C 1026.9 in /  34770.8 hPa Calm     58 % 0.0 in /  0 mm
06:39 1.6 °F /  -16.9 °C -5.8 °F /  -21 °C 1026.9 in /  34770.8 hPa Calm     58 % 0.0 in /  0 mm
06:44 1.6 °F /  -16.9 °C -6.0 °F /  -21.1 °C 1026.9 in /  34770.8 hPa Calm     57 % 0.0 in /  0 mm
06:49 1.5 °F /  -16.9 °C -5.9 °F /  -21.1 °C 1026.9 in /  34770.8 hPa Calm     58 % 0.0 in /  0 mm
06:54 1.4 °F /  -17 °C -6.0 °F /  -21.1 °C 1026.9 in /  34770.8 hPa NNW 3.7 mph /  6 km/h   58 % 0.0 in /  0 mm
06:59 1.4 °F /  -17 °C -6.0 °F /  -21.1 °C 1026.9 in /  34770.8 hPa NNW 1.9 mph /  3.1 km/h   58 % 0.0 in /  0 mm
07:04 1.3 °F /  -17.1 °C -6.1 °F /  -21.2 °C 1026.9 in /  34770.8 hPa Calm     58 % 0.0 in /  0 mm
07:09 1.2 °F /  -17.1 °C -6.2 °F /  -21.2 °C 1026.9 in /  34770.8 hPa Calm     58 % 0.0 in /  0 mm
07:14 1.2 °F /  -17.1 °C -6.4 °F /  -21.3 °C 1026.9 in /  34770.8 hPa SW 2.3 mph /  3.7 km/h 2.3 mph /  3.7 km/h 57 % 0.0 in /  0 mm
07:19 1.0 °F /  -17.2 °C -6.6 °F /  -21.4 °C 1026.9 in /  34770.8 hPa SW 1.9 mph /  3.1 km/h   57 % 0.0 in /  0 mm
07:24 1.0 °F /  -17.2 °C -6.3 °F /  -21.3 °C 1026.9 in /  34770.8 hPa Calm     58 % 0.0 in /  0 mm
07:29 0.9 °F /  -17.3 °C -6.4 °F /  -21.3 °C 1026.9 in /  34770.8 hPa Calm   1.4 mph /  2.3 km/h 58 % 0.0 in /  0 mm
07:34 0.9 °F /  -17.3 °C -6.4 °F /  -21.3 °C 1026.9 in /  34770.8 hPa ENE 1.9 mph /  3.1 km/h   58 % 0.0 in /  0 mm
07:39 0.9 °F /  -17.3 °C -6.4 °F /  -21.3 °C 1026.9 in /  34770.8 hPa Calm     58 % 0.0 in /  0 mm
07:44 0.9 °F /  -17.3 °C -6.4 °F /  -21.3 °C 1026.9 in /  34770.8 hPa Calm     58 % 0.0 in /  0 mm
07:49 0.9 °F /  -17.3 °C -6.2 °F /  -21.2 °C 1026.9 in /  34770.8 hPa Calm     59 % 0.0 in /  0 mm
07:54 0.9 °F /  -17.3 °C -6.4 °F /  -21.3 °C 1026.9 in /  34770.8 hPa Calm     58 % 0.0 in /  0 mm
07:59 1.0 °F /  -17.2 °C -6.1 °F /  -21.2 °C 1027.9 in /  34804.7 hPa Calm     59 % 0.0 in /  0 mm
08:04 1.1 °F /  -17.2 °C -6.1 °F /  -21.2 °C 1027.9 in /  34804.7 hPa Calm     59 % 0.0 in /  0 mm
08:09 1.2 °F /  -17.1 °C -5.9 °F /  -21.1 °C 1027.9 in /  34804.7 hPa Calm     59 % 0.0 in /  0 mm
08:14 1.3 °F /  -17.1 °C -5.8 °F /  -21 °C 1027.9 in /  34804.7 hPa Calm     59 % 0.0 in /  0 mm
08:19 1.5 °F /  -16.9 °C -5.7 °F /  -20.9 °C 1027.9 in /  34804.7 hPa Calm     59 % 0.0 in /  0 mm
08:24 1.4 °F /  -17 °C -5.7 °F /  -20.9 °C 1027.9 in /  34804.7 hPa Calm     59 % 0.0 in /  0 mm
08:29 1.5 °F /  -16.9 °C -5.7 °F /  -20.9 °C 1027.9 in /  34804.7 hPa Calm     59 % 0.0 in /  0 mm
08:34 1.4 °F /  -17 °C -6.0 °F /  -21.1 °C 1027.9 in /  34804.7 hPa Calm     58 % 0.0 in /  0 mm
08:39 1.5 °F /  -16.9 °C -5.9 °F /  -21.1 °C 1027.9 in /  34804.7 hPa Calm     58 % 0.0 in /  0 mm
08:44 1.7 °F /  -16.8 °C -5.7 °F /  -20.9 °C 1027.9 in /  34804.7 hPa Calm     58 % 0.0 in /  0 mm
08:49 1.9 °F /  -16.7 °C -5.5 °F /  -20.8 °C 1027.9 in /  34804.7 hPa Calm     58 % 0.0 in /  0 mm
08:54 2.1 °F /  -16.6 °C -5.3 °F /  -20.7 °C 1027.9 in /  34804.7 hPa Calm     58 % 0.0 in /  0 mm
08:59 2.3 °F /  -16.5 °C -5.3 °F /  -20.7 °C 1027.9 in /  34804.7 hPa SSW 2.3 mph /  3.7 km/h 1.9 mph /  3.1 km/h 57 % 0.0 in /  0 mm
09:04 2.4 °F /  -16.4 °C -5.3 °F /  -20.7 °C 1027.9 in /  34804.7 hPa SW 5.6 mph /  9 km/h 3.9 mph /  6.3 km/h 57 % 0.0 in /  0 mm
09:09 2.6 °F /  -16.3 °C -5.1 °F /  -20.6 °C 1027.9 in /  34804.7 hPa SSW 1.9 mph /  3.1 km/h   57 % 0.0 in /  0 mm
09:14 2.8 °F /  -16.2 °C -5.1 °F /  -20.6 °C 1027.9 in /  34804.7 hPa South 3.2 mph /  5.1 km/h   56 % 0.0 in /  0 mm
09:19 3.5 °F /  -15.8 °C -4.4 °F /  -20.2 °C 1027.9 in /  34804.7 hPa SSW 2.3 mph /  3.7 km/h 1.4 mph /  2.3 km/h 56 % 0.0 in /  0 mm
09:24 4.1 °F /  -15.5 °C -3.9 °F /  -19.9 °C 1027.9 in /  34804.7 hPa SSW 3.7 mph /  6 km/h   56 % 0.0 in /  0 mm
09:29 4.2 °F /  -15.4 °C -3.8 °F /  -19.9 °C 1027.9 in /  34804.7 hPa South 2.6 mph /  4.2 km/h   56 % 0.0 in /  0 mm
09:34 4.6 °F /  -15.2 °C -3.7 °F /  -19.8 °C 1027.9 in /  34804.7 hPa SSE 2.3 mph /  3.7 km/h 2.3 mph /  3.7 km/h 55 % 0.0 in /  0 mm
09:39 5.0 °F /  -15 °C -3.3 °F /  -19.6 °C 1027.9 in /  34804.7 hPa SE 5.6 mph /  9 km/h   55 % 0.0 in /  0 mm
09:44 5.2 °F /  -14.9 °C -3.1 °F /  -19.5 °C 1027.9 in /  34804.7 hPa South 3.7 mph /  6 km/h 1.4 mph /  2.3 km/h 55 % 0.0 in /  0 mm
09:49 5.6 °F /  -14.7 °C -3.0 °F /  -19.4 °C 1027.9 in /  34804.7 hPa SE 1.9 mph /  3.1 km/h   54 % 0.0 in /  0 mm
09:54 6.0 °F /  -14.4 °C -2.6 °F /  -19.2 °C 1027.9 in /  34804.7 hPa ENE 3.7 mph /  6 km/h 1.9 mph /  3.1 km/h 54 % 0.0 in /  0 mm
09:59 6.0 °F /  -14.4 °C -2.9 °F /  -19.4 °C 1027.9 in /  34804.7 hPa NNE 3.7 mph /  6 km/h 1.9 mph /  3.1 km/h 53 % 0.0 in /  0 mm
10:04 6.2 °F /  -14.3 °C -2.7 °F /  -19.3 °C 1027.9 in /  34804.7 hPa NNE 3.7 mph /  6 km/h 2.3 mph /  3.7 km/h 53 % 0.0 in /  0 mm
10:09 6.4 °F /  -14.2 °C -2.5 °F /  -19.2 °C 1027.9 in /  34804.7 hPa ENE 3.7 mph /  6 km/h 2.6 mph /  4.2 km/h 53 % 0.0 in /  0 mm
10:14 6.5 °F /  -14.2 °C -2.4 °F /  -19.1 °C 1027.9 in /  34804.7 hPa NE 3.7 mph /  6 km/h 3.5 mph /  5.6 km/h 53 % 0.0 in /  0 mm
10:19 6.7 °F /  -14.1 °C -2.5 °F /  -19.2 °C 1027.9 in /  34804.7 hPa ENE 3.7 mph /  6 km/h 2.6 mph /  4.2 km/h 52 % 0.0 in /  0 mm
10:24 7.0 °F /  -13.9 °C -1.9 °F /  -18.8 °C 1027.9 in /  34804.7 hPa WNW 3.7 mph /  6 km/h   53 % 0.0 in /  0 mm
10:29 7.2 °F /  -13.8 °C -2.0 °F /  -18.9 °C 1027.9 in /  34804.7 hPa NNE 3.7 mph /  6 km/h 3.5 mph /  5.6 km/h 52 % 0.0 in /  0 mm
10:34 7.0 °F /  -13.9 °C -2.2 °F /  -19 °C 1027.9 in /  34804.7 hPa NE 5.0 mph /  8 km/h 3.9 mph /  6.3 km/h 52 % 0.0 in /  0 mm
10:39 7.2 °F /  -13.8 °C -2.0 °F /  -18.9 °C 1027.9 in /  34804.7 hPa East 4.2 mph /  6.8 km/h 3.5 mph /  5.6 km/h 52 % 0.0 in /  0 mm
10:44 7.5 °F /  -13.6 °C -2.0 °F /  -18.9 °C 1027.9 in /  34804.7 hPa ENE 3.7 mph /  6 km/h 2.6 mph /  4.2 km/h 51 % 0.0 in /  0 mm
10:49 8.0 °F /  -13.3 °C -1.6 °F /  -18.7 °C 1027.9 in /  34804.7 hPa ENE 2.6 mph /  4.2 km/h 2.3 mph /  3.7 km/h 51 % 0.0 in /  0 mm
10:54 8.1 °F /  -13.3 °C -1.4 °F /  -18.6 °C 1027.9 in /  34804.7 hPa ENE 4.2 mph /  6.8 km/h 3.2 mph /  5.1 km/h 51 % 0.0 in /  0 mm
10:59 8.2 °F /  -13.2 °C -1.3 °F /  -18.5 °C 1027.9 in /  34804.7 hPa East 3.7 mph /  6 km/h 1.9 mph /  3.1 km/h 51 % 0.0 in /  0 mm
11:04 8.7 °F /  -12.9 °C -0.9 °F /  -18.3 °C 1027.9 in /  34804.7 hPa East 5.0 mph /  8 km/h 2.3 mph /  3.7 km/h 51 % 0.0 in /  0 mm
11:09 9.0 °F /  -12.8 °C -0.6 °F /  -18.1 °C 1027.9 in /  34804.7 hPa East 3.7 mph /  6 km/h 2.6 mph /  4.2 km/h 51 % 0.0 in /  0 mm
11:14 9.1 °F /  -12.7 °C -0.8 °F /  -18.2 °C 1027.9 in /  34804.7 hPa East 5.6 mph /  9 km/h 3.5 mph /  5.6 km/h 50 % 0.0 in /  0 mm
11:19 9.5 °F /  -12.5 °C -0.4 °F /  -18 °C 1027.9 in /  34804.7 hPa ESE 1.9 mph /  3.1 km/h 2.3 mph /  3.7 km/h 50 % 0.0 in /  0 mm
11:24 9.6 °F /  -12.4 °C -0.3 °F /  -17.9 °C 1027.9 in /  34804.7 hPa ESE 5.6 mph /  9 km/h 3.5 mph /  5.6 km/h 50 % 0.0 in /  0 mm
11:29 10.0 °F /  -12.2 °C -0.2 °F /  -17.9 °C 1027.9 in /  34804.7 hPa SE 1.9 mph /  3.1 km/h 1.4 mph /  2.3 km/h 49 % 0.0 in /  0 mm
11:34 10.4 °F /  -12 °C 0.1 °F /  -17.7 °C 1027.9 in /  34804.7 hPa East 5.3 mph /  8.5 km/h 2.6 mph /  4.2 km/h 49 % 0.0 in /  0 mm
11:39 10.3 °F /  -12.1 °C -0.2 °F /  -17.9 °C 1027.9 in /  34804.7 hPa NNE 5.6 mph /  9 km/h 4.7 mph /  7.6 km/h 48 % 0.0 in /  0 mm
11:44 10.6 °F /  -11.9 °C 0.1 °F /  -17.7 °C 1026.9 in /  34770.8 hPa NNW 5.6 mph /  9 km/h 4.2 mph /  6.8 km/h 48 % 0.0 in /  0 mm
11:49 10.6 °F /  -11.9 °C -0.3 °F /  -17.9 °C 1026.9 in /  34770.8 hPa ENE 7.4 mph /  11.9 km/h 4.2 mph /  6.8 km/h 47 % 0.0 in /  0 mm
11:54 11.0 °F /  -11.7 °C 0.1 °F /  -17.7 °C 1026.9 in /  34770.8 hPa East 4.7 mph /  7.6 km/h 4.2 mph /  6.8 km/h 47 % 0.0 in /  0 mm
11:59 11.2 °F /  -11.6 °C 0.3 °F /  -17.6 °C 1026.9 in /  34770.8 hPa WNW 3.7 mph /  6 km/h 1.9 mph /  3.1 km/h 47 % 0.0 in /  0 mm
12:04 11.4 °F /  -11.4 °C 0.8 °F /  -17.3 °C 1026.9 in /  34770.8 hPa WSW 3.7 mph /  6 km/h 2.6 mph /  4.2 km/h 48 % 0.0 in /  0 mm
12:09 11.6 °F /  -11.3 °C 0.7 °F /  -17.4 °C 1026.9 in /  34770.8 hPa NE 3.7 mph /  6 km/h 2.3 mph /  3.7 km/h 47 % 0.0 in /  0 mm
12:14 11.9 °F /  -11.2 °C 0.6 °F /  -17.4 °C 1026.9 in /  34770.8 hPa SE 5.6 mph /  9 km/h 3.2 mph /  5.1 km/h 46 % 0.0 in /  0 mm
12:19 12.3 °F /  -10.9 °C 0.7 °F /  -17.4 °C 1026.9 in /  34770.8 hPa NNE 5.6 mph /  9 km/h 4.2 mph /  6.8 km/h 45 % 0.0 in /  0 mm
12:24 12.4 °F /  -10.9 °C 0.4 °F /  -17.6 °C 1026.9 in /  34770.8 hPa NNE 3.9 mph /  6.3 km/h 3.2 mph /  5.1 km/h 44 % 0.0 in /  0 mm
12:29 12.3 °F /  -10.9 °C -0.3 °F /  -17.9 °C 1026.9 in /  34770.8 hPa East 7.4 mph /  11.9 km/h 5.0 mph /  8 km/h 42 % 0.0 in /  0 mm
12:34 12.4 °F /  -10.9 °C 0.2 °F /  -17.7 °C 1026.9 in /  34770.8 hPa South 3.7 mph /  6 km/h   43 % 0.0 in /  0 mm
12:39 12.8 °F /  -10.7 °C 0.5 °F /  -17.5 °C 1026.9 in /  34770.8 hPa SW 5.6 mph /  9 km/h 3.5 mph /  5.6 km/h 43 % 0.0 in /  0 mm
12:44 13.2 °F /  -10.4 °C 0.6 °F /  -17.4 °C 1026.9 in /  34770.8 hPa ENE 5.6 mph /  9 km/h 1.9 mph /  3.1 km/h 42 % 0.0 in /  0 mm
12:49 13.1 °F /  -10.5 °C 0.4 °F /  -17.6 °C 1026.9 in /  34770.8 hPa ESE 5.6 mph /  9 km/h 5.0 mph /  8 km/h 42 % 0.0 in /  0 mm
Meteo Sesrovires
Elogis d' Weather Underground - 1.25 mb

Guio original per  Jim McMurry - jmcmurry@mwt.net Adaptat per a la plantilla per  Wim van der Kuil - Leuven-Template.eu

Trobareu la nostra informacio del temps tambe a:

Weather Underground

AWEKAS